Boyd Deep Canyon Reserve, California Weather observations

Data are for 10 minute period ending at time listed.
 Day   Time   Solar   Ave.   Ave.  Ave.  Vector  Max.   Baro.   Total    
  of    of     Rad.   Air    Rel.  Wind   Wind   Wind  Press.  Precip.   
Year   Day            Temp.  Hum.  Speed  Dir.   Gust                    
2014   (PST)  Kw/m2    F      %     mph   deg.    mph    mb.     in.     
-------------------------------------------------------------------------
 259   19:40   0.00   89.9    46    3.5    88     6.5   973.3    0.00 
 259   19:50   0.00   89.8    45    3.2    74     7.0   973.4    0.00 
 259   20:00   0.00   89.5    45    5.5    77    10.2   973.4    0.00 
 259   20:10   0.00   89.2    44    6.5    86    11.2   973.6    0.00 
 259   20:20   0.00   89.2    44    5.6    82    11.3   973.7    0.00 
 259   20:30   0.00   89.1    43    6.4    80    12.3   973.7    0.00 
 259   20:40   0.00   89.1    42    5.9    70    10.7   973.8    0.00 
 259   20:50   0.00   89.0    42    5.8    58     9.7   974.0    0.00 
 259   21:00   0.00   89.3    41    6.0    65    15.8   974.1    0.00 
 259   21:10   0.00   87.4    50   11.8    58    22.6   974.3    0.00 
 259   21:20   0.00   85.6    52   10.9    66    23.8   974.4    0.00 
 259   21:30   0.00   84.7    54    9.0    72    18.3   974.4    0.00 
 259   21:40   0.00   84.3    55    7.0    77    14.6   974.4    0.00 
 259   21:50   0.00   84.5    56    4.4   117    10.2   974.4    0.00 
 259   22:00   0.00   84.7    55    1.8    91     4.4   974.4    0.00 
 259   22:10   0.00   85.1    53    4.0   108     9.9   974.5    0.00 
 259   22:20   0.00   85.4    51    5.6    70    11.8   974.4    0.00 
 259   22:30   0.00   85.3    51    2.0   108     7.7   974.4    0.00 
 259   22:40   0.00   85.3    51    1.7     1     4.1   974.3    0.00 
 259   22:50   0.00   85.2    51    3.2    86     6.3   974.3    0.00 
 259   23:00   0.00   85.2    51    4.2   210     7.9   974.1    0.00 
 259   23:10   0.00   85.2    51    3.4   220     5.4   973.9    0.00 
 259   23:20   0.00   85.3    52    2.5   273     4.5   973.8    0.00 
 259   23:30   0.00   85.1    52    3.6   358     6.5   973.8    0.00 
 259   23:40   0.00   84.7    52    2.1   350     5.8   973.8    0.00 
 259   23:50   0.00   84.5    53    0.8    86     2.6   973.6    0.00 
 260    0:00   0.00   84.3    53    1.4    21     2.8   973.6    0.00 
 260    0:10   0.00   83.8    54    0.4    66     1.3   973.7    0.00 
 260    0:20   0.00   83.7    54    1.1   181     2.0   973.7    0.00 
 260    0:30   0.00   83.7    54    1.6   178     2.6   973.7    0.00 
 260    0:40   0.00   83.7    54    0.3   201     1.2   973.7    0.00 
 260    0:50   0.00   83.3    55    1.3    50     2.7   973.7    0.00 
 260    1:00   0.00   83.3    54    1.9    73     2.6   973.6    0.00 
 260    1:10   0.00   83.4    54    0.2    21     1.2   973.5    0.00 
 260    1:20   0.00   83.1    55    1.2    73     1.9   973.5    0.00 
 260    1:30   0.00   83.0    55    0.5   123     1.6   973.5    0.00 
 260    1:40   0.00   83.2    55    0.4   216     1.0   973.5    0.00 
 260    1:50   0.00   83.0    55    0.5   206     1.6   973.5    0.00 
 260    2:00   0.00   83.0    56    1.0   206     1.6   973.5    0.00 
 260    2:10   0.00   83.0    55    0.0   207     0.4   973.3    0.00 
 260    2:20   0.00   82.6    56    0.5   206     1.8   973.2    0.00 
 260    2:30   0.00   82.4    57    0.5    32     2.0   973.1    0.00 
 260    2:40   0.00   82.4    57    0.6    23     1.8   973.0    0.00 
 260    2:50   0.00   82.4    57    0.6   270     1.5   972.9    0.00 
 260    3:00   0.00   82.3    57    0.3   356     2.0   972.9    0.00 
 260    3:10   0.00   82.3    57    0.7     9     2.1   973.0    0.00 
 260    3:20   0.00   81.9    57    0.5   358     1.2   973.0    0.00 
 260    3:30   0.00   81.8    57    0.5   333     2.1   973.1    0.00 
 260    3:40   0.00   81.6    57    1.2   352     2.5   973.1    0.00 
 260    3:50   0.00   81.7    57    0.5   200     1.3   973.0    0.00 
 260    4:00   0.00   81.9    57    0.3    47     1.6   973.0    0.00 
 260    4:10   0.00   81.5    58    2.3    71     3.6   972.9    0.00 
 260    4:20   0.00   81.9    57    2.1    71     3.4   973.0    0.00 
 260    4:30   0.00   81.8    57    1.7   100     2.8   973.0    0.00 
 260    4:40   0.00   81.9    57    1.0    72     2.5   973.0    0.00 
 260    4:50   0.00   81.5    58    0.2   124     1.2   973.1    0.00 
 260    5:00   0.00   81.1    59    0.0     0     0.0   973.2    0.00 
 260    5:10   0.00   80.9    59    0.1    61     0.6   973.3    0.00 
 260    5:20   0.00   80.7    59    0.5   213     1.8   973.3    0.00 
 260    5:30   0.00   80.8    59    1.9   196     2.4   973.4    0.00 
 260    5:40   0.00   81.1    59    2.0   191     2.6   973.5    0.00 
 260    5:50   0.01   80.9    59    1.1    74     2.0   973.6    0.00 
 260    6:00   0.01   80.9    58    0.3    35     1.3   973.7    0.00 
 260    6:10   0.02   81.1    57    0.4   177     1.2   973.8    0.00 
 260    6:20   0.04   81.6    53    1.7   186     2.7   973.9    0.00 
 260    6:30   0.11   83.5    47    2.8   196     4.5   973.9    0.00 
 260    6:40   0.14   84.9    44    2.9   175     4.2   974.0    0.00 
 260    6:50   0.18   86.7    42    1.0   166     2.7   974.0    0.00 
 260    7:00   0.21   88.4    44    1.0    40     2.4   973.9    0.00 
 260    7:10   0.25   87.6    42    1.5   157     3.1   973.9    0.00 
 260    7:20   0.28   87.5    44    1.0   185     2.6   973.9    0.00 
 260    7:30   0.32   87.6    47    3.8     8     6.6   973.9    0.00 
 260    7:40   0.35   86.4    49    5.1   350     7.5   974.0    0.00 
 260    7:50   0.39   86.4    49    4.5   359     7.2   974.0    0.00 
 260    8:00   0.42   87.2    48    3.8   356     5.8   974.0    0.00 
 260    8:10   0.45   87.3    48    4.6    13     7.6   974.1    0.00 
 260    8:20   0.49   87.7    48    4.9   350     7.7   974.2    0.00 
 260    8:30   0.52   87.7    48    4.1     0     7.5   974.2    0.00 
 260    8:40   0.54   87.9    47    4.2   353     7.8   974.4    0.00 
 260    8:50   0.57   88.6    45    3.6   351     8.5   974.4    0.00 
 260    9:00   0.60   88.4    46    4.5   351     8.6   974.4    0.00 
 260    9:10   0.63   89.1    45    4.4   356     8.9   974.3    0.00 
 260    9:20   0.66   89.3    45    5.1     5     8.0   974.3    0.00 
 260    9:30   0.68   89.3    45    4.1     2     8.8   974.3    0.00 
 260    9:40   0.70   89.7    44    2.8   348     6.3   974.4    0.00 
 260    9:50   0.73   90.4    43    3.8     8     9.2   974.4    0.00 
 260   10:00   0.75   91.2    42    5.5     1    10.4   974.4    0.00 
 260   10:10   0.77   90.3    43    3.8   328     7.7   974.4    0.00 
 260   10:20   0.78   91.3    41    5.5     3     8.5   974.2    0.00 
 260   10:30   0.80   92.2    39    4.1    28     6.8   974.2    0.00 
 260   10:40   0.81   92.0    39    6.7    73    12.1   974.1    0.00 
 260   10:50   0.82   92.5    37    6.3    59    13.3   974.1    0.00 
 260   11:00   0.83   92.8    36    5.9    63    10.1   974.0    0.00 
 260   11:10   0.84   92.6    36    4.3    92    11.2   973.9    0.00 
 260   11:20   0.85   93.3    36    5.6    70    10.9   973.7    0.00 
 260   11:30   0.85   93.6    36    4.2    50    12.2   973.7    0.00 
 260   11:40   0.85   94.3    35    3.0    92     8.3   973.6    0.00 
 260   11:50   0.85   94.4    34    6.0    63    11.0   973.5    0.00 
 260   12:00   0.85   95.2    33    3.2    44     8.3   973.3    0.00 
 260   12:10   0.85   94.7    33    4.1    72     9.1   973.1    0.00 
 260   12:20   0.84   95.1    32    4.3    80    10.7   972.9    0.00 
 260   12:30   0.87   95.5    32    4.9    61    11.0   972.8    0.00 
 260   12:40   0.72   96.3    30    5.0    71    12.9   972.7    0.00 
 260   12:50   0.84   95.8    32    5.5    72    11.6   972.6    0.00 
 260   13:00   0.82   94.8    33    6.8    83    12.1   972.5    0.00 
 260   13:10   0.81   95.7    31    4.3    74    10.2   972.3    0.00 
 260   13:20   0.72   96.3    30    7.2    56    14.4   972.1    0.00 
 260   13:30   0.13   94.7    32    3.7    67    10.2   972.0    0.00 
 260   13:40   0.17   95.0    31    4.0    45    11.5   971.9    0.00 
 260   13:50   0.19   94.3    33    5.0    76     9.6   971.7    0.00 
 260   14:00   0.20   94.1    33    6.6    79    12.1   971.6    0.00 
 260   14:10   0.21   94.0    33    6.4    76    12.6   971.5    0.00 
 260   14:20   0.27   94.2    33    7.7    66    12.2   971.3    0.00 
 260   14:30   0.58   94.9    32    8.7    65    12.9   971.1    0.00 
 260   14:40   0.70   96.0    30    7.9    64    12.6   971.1    0.00 
 260   14:50   0.68   95.9    30    8.3    62    14.0   971.1    0.00 
 260   15:00   0.39   95.8    30    8.7    71    12.8   971.1    0.00 
 260   15:10   0.55   95.6    30    7.2    76    13.4   971.1    0.00 
 260   15:20   0.29   95.1    30    7.7    75    14.0   970.9    0.00 
 260   15:30   0.29   94.5    31    8.8    80    13.2   970.9    0.00 
 260   15:40   0.26   94.6    31    6.1    79    11.8   970.8    0.00 
 260   15:50   0.37   95.1    31    7.3    74    12.6   970.7    0.00 
 260   16:00   0.34   95.5    30    7.7    70    13.9   970.6    0.00 
 260   16:10   0.23   95.0    31    7.0    76    12.3   970.6    0.00 
 260   16:20   0.24   94.7    31    7.4    72    13.8   970.5    0.00 
 260   16:30   0.14   94.4    31    8.3    79    13.2   970.5    0.00 
 260   16:40   0.08   94.1    32    5.8    66    13.5   970.4    0.00 
 260   16:50   0.08   93.8    32    6.6    73    10.3   970.3    0.00 
 260   17:00   0.08   93.3    33    7.5    74    12.4   970.3    0.00 
 260   17:10   0.06   92.9    34    8.5    85    11.8   970.2    0.00 
 260   17:20   0.03   92.8    33    6.9    82    11.2   970.2    0.00 
 260   17:30   0.02   92.7    33    7.8    81    13.7   970.1    0.00 
 260   17:40   0.01   92.5    33    8.8    78    14.0   970.0    0.00 
 260   17:50   0.00   92.4    34    7.2    76    14.1   970.1    0.00 
 260   18:00   0.00   91.8    36   10.5    75    14.6   970.1    0.00 
 260   18:10   0.00   91.6    36   10.5    78    15.3   970.1    0.00 
 260   18:20   0.00   92.2    35    5.1    94    11.4   970.1    0.00 
 260   18:30   0.00   92.4    34    2.5     9     6.1   970.2    0.00 
 260   18:40   0.00   92.5    34    1.8   291     4.8   970.2    0.00 
 260   18:50   0.00   92.3    34    3.0   296     5.1   970.3    0.00 
 260   19:00   0.00   92.5    34    4.4   275     6.9   970.4    0.00 
 260   19:10   0.00   92.1    35    4.8   277     7.3   970.5    0.00 
 260   19:20   0.00   91.9    35    4.0   265     6.1   970.6    0.00 
 260   19:30   0.00   91.9    35    3.9   272     5.7   970.7    0.00 

Return to Boyd Deep Canyon Reserve graphs page.


Western Regional Climate Center,wrcc@dri.edu